Time;durP1;ratioP1;P1;durP2;ratioP2;P2;SDS_P1;SDS_P2;PMS_P1;PMS_P2;Temp;Humidity;BMP_temperature;BMP_pressure;BME280_temperature;BME280_humidity;BME280_pressure;Samples;Min_cycle;Max_cycle;Signal;HPM_P1;HPM_P2
2022/05/25 00:00:20;;;;;;;6.30;5.70;;;;;;;14.92;80.60;100037.65;84842;1326;25951;-74
2022/05/25 00:02:54;;;;;;;7.10;5.60;;;;;;;14.91;80.66;100037.70;84768;1326;22584;-75
2022/05/25 00:05:21;;;;;;;6.40;5.80;;;;;;;14.89;80.60;100042.38;84841;1328;22638;-74
2022/05/25 00:07:32;;;;;;;8.10;5.80;;;;;;;14.89;80.77;100042.96;84839;1325;23368;-75
2022/05/25 00:09:53;;;;;;;6.10;5.60;;;;;;;14.89;80.67;100033.78;84784;1323;22646;-75
2022/05/25 00:12:11;;;;;;;5.60;4.90;;;;;;;14.92;80.78;100040.45;84788;1326;22577;-75
2022/05/25 00:14:25;;;;;;;6.90;5.30;;;;;;;14.92;80.80;100042.20;84801;1327;22722;-74
2022/05/25 00:16:41;;;;;;;7.60;5.00;;;;;;;14.93;80.97;100051.27;84772;1327;22707;-76
2022/05/25 00:21:29;;;;;;;5.60;5.10;;;;;;;14.95;80.91;100069.27;84804;1325;25525;-75
2022/05/25 00:23:48;;;;;;;5.30;4.80;;;;;;;14.97;80.94;100070.90;84833;1323;22606;-76
2022/05/25 00:26:05;;;;;;;7.50;5.00;;;;;;;14.99;80.96;100067.98;84784;1326;22782;-74
2022/05/25 00:28:18;;;;;;;5.50;5.10;;;;;;;15.01;80.99;100054.30;84826;1327;22759;-76
2022/05/25 00:30:27;;;;;;;5.40;4.50;;;;;;;15.03;80.88;100052.11;84815;1327;24193;-75
2022/05/25 00:32:41;;;;;;;6.00;4.90;;;;;;;15.03;81.12;100048.08;84844;1325;22611;-75
2022/05/25 00:34:51;;;;;;;6.30;5.20;;;;;;;15.03;81.24;100054.94;84835;1324;22608;-74
2022/05/25 00:37:02;;;;;;;5.50;5.10;;;;;;;15.01;81.13;100056.08;84844;1325;24257;-75
2022/05/25 00:39:11;;;;;;;5.30;4.50;;;;;;;15.01;80.96;100052.92;84831;1328;22927;-75
2022/05/25 00:41:24;;;;;;;7.60;5.60;;;;;;;15.00;81.14;100054.73;84836;1328;22597;-74
2022/05/25 00:43:34;;;;;;;5.10;4.60;;;;;;;14.99;80.96;100047.42;84837;1325;25514;-75
2022/05/25 00:45:53;;;;;;;6.20;5.30;;;;;;;14.97;81.14;100035.95;84829;1324;26654;-75
2022/05/25 00:48:09;;;;;;;5.50;4.90;;;;;;;14.96;81.17;100027.56;84817;1324;25602;-74
2022/05/25 00:50:28;;;;;;;5.50;4.40;;;;;;;14.96;81.10;100032.84;84771;1322;22726;-76
2022/05/25 00:53:00;;;;;;;6.80;5.20;;;;;;;14.92;81.34;100039.91;84836;1328;24115;-76
2022/05/25 00:55:14;;;;;;;6.20;4.90;;;;;;;14.92;81.31;100040.45;84871;1327;25537;-75
2022/05/25 00:57:33;;;;;;;5.60;4.50;;;;;;;14.93;81.41;100037.95;84852;1324;24069;-74
2022/05/25 00:59:51;;;;;;;5.40;4.90;;;;;;;14.94;81.33;100042.44;84857;1324;22605;-75
2022/05/25 01:02:04;;;;;;;4.80;4.40;;;;;;;14.94;81.27;100047.92;84830;1325;25283;-74
2022/05/25 01:04:18;;;;;;;6.00;4.60;;;;;;;14.94;81.28;100050.71;84854;1325;22577;-75
2022/05/25 01:06:40;;;;;;;5.30;4.20;;;;;;;14.93;81.46;100045.35;84860;1325;22590;-76
2022/05/25 01:09:03;;;;;;;5.80;5.20;;;;;;;14.92;81.60;100040.80;84770;1327;24402;-74
2022/05/25 01:11:28;;;;;;;10.00;4.60;;;;;;;14.91;81.54;100040.84;84835;1321;22655;-75
2022/05/25 01:13:49;;;;;;;5.10;4.60;;;;;;;14.93;81.59;100036.55;84775;1327;22678;-75
2022/05/25 01:16:08;;;;;;;8.30;5.20;;;;;;;14.90;81.56;100031.11;84803;1329;22591;-74
2022/05/25 01:18:27;;;;;;;;;;;;;;;14.89;81.78;100030.65;84837;1326;22553;-75
2022/05/25 01:20:50;;;;;;;5.70;5.20;;;;;;;14.88;81.98;100034.08;84835;1325;22601;-75
2022/05/25 01:23:56;;;;;;;7.00;5.00;;;;;;;14.87;81.78;100034.77;84781;1329;22694;-75
2022/05/25 01:26:36;;;;;;;5.60;5.10;;;;;;;14.86;81.69;100031.36;84836;1325;22587;-74
2022/05/25 01:29:06;;;;;;;6.20;5.20;;;;;;;14.86;81.85;100034.67;84818;1324;22714;-74
2022/05/25 01:31:29;;;;;;;5.20;4.80;;;;;;;14.87;81.84;100030.95;84800;1321;22643;-73
2022/05/25 01:33:52;;;;;;;5.60;5.10;;;;;;;14.86;81.76;100035.05;84839;1327;22611;-74
2022/05/25 01:36:09;;;;;;;5.90;5.30;;;;;;;14.84;81.84;100041.48;84867;1324;22609;-74
2022/05/25 01:38:32;;;;;;;5.40;4.90;;;;;;;14.82;81.79;100040.21;84874;1320;22653;-74
2022/05/25 01:40:51;;;;;;;5.50;5.00;;;;;;;14.78;81.93;100040.23;84824;1321;22704;-73
2022/05/25 01:43:22;;;;;;;6.50;4.90;;;;;;;14.78;82.06;100040.46;84856;1324;22591;-75
2022/05/25 01:45:45;;;;;;;7.60;5.10;;;;;;;14.77;82.04;100037.73;84819;1318;22598;-74
2022/05/25 01:48:03;;;;;;;6.30;5.70;;;;;;;14.75;82.16;100039.26;84719;1331;22837;-73
2022/05/25 01:50:51;;;;;;;6.00;5.40;;;;;;;14.73;82.21;100042.52;84777;1328;24046;-75
2022/05/25 01:53:07;;;;;;;5.70;5.10;;;;;;;14.70;82.24;100040.92;84819;1324;23958;-74
2022/05/25 01:55:21;;;;;;;7.40;5.90;;;;;;;14.68;82.45;100043.15;84834;1324;23349;-75
2022/05/25 01:57:44;;;;;;;6.10;5.50;;;;;;;14.67;82.49;100048.64;84840;1324;24382;-74
2022/05/25 01:59:55;;;;;;;6.20;5.70;;;;;;;14.66;82.47;100049.06;84837;1323;22620;-75
2022/05/25 02:04:51;;;;;;;6.30;5.70;;;;;;;14.65;82.76;100047.38;84780;1327;25335;-74
2022/05/25 02:07:22;;;;;;;8.20;5.80;;;;;;;14.65;82.96;100045.25;84772;1322;23223;-74
2022/05/25 02:10:11;;;;;;;6.10;5.40;;;;;;;14.65;82.94;100044.03;84795;1322;22589;-74
2022/05/25 02:12:48;;;;;;;6.70;6.00;;;;;;;14.64;82.94;100046.56;84615;1328;22681;-75
2022/05/25 02:15:31;;;;;;;7.20;6.50;;;;;;;14.60;83.18;100042.38;84825;1326;22595;-74
2022/05/25 02:18:03;;;;;;;6.60;6.00;;;;;;;14.61;83.38;100040.63;84803;1327;22748;-74
2022/05/25 02:20:26;;;;;;;6.90;6.30;;;;;;;14.61;83.34;100038.14;84786;1325;24370;-74
2022/05/25 02:22:41;;;;;;;7.10;5.60;;;;;;;14.59;83.21;100038.28;84822;1327;22663;-76
2022/05/25 02:25:00;;;;;;;6.50;5.90;;;;;;;14.56;83.22;100038.59;84795;1321;24455;-74
2022/05/25 02:27:16;;;;;;;7.00;5.80;;;;;;;14.55;83.39;100047.81;84800;1325;22873;-75
2022/05/25 02:29:45;;;;;;;7.50;6.90;;;;;;;14.54;83.46;100052.26;84807;1323;22658;-74
2022/05/25 02:32:03;;;;;;;7.20;6.60;;;;;;;14.53;83.37;100055.30;84810;1327;22575;-73
2022/05/25 02:34:34;;;;;;;6.50;5.90;;;;;;;14.51;83.50;100059.80;84814;1327;22674;-74
2022/05/25 02:36:48;;;;;;;6.60;5.90;;;;;;;14.49;83.41;100058.02;84794;1327;25365;-73
2022/05/25 02:39:14;;;;;;;9.30;6.60;;;;;;;14.49;83.59;100053.80;84816;1326;25436;-74
2022/05/25 02:41:46;;;;;;;7.00;6.40;;;;;;;14.52;83.91;100055.16;84801;1329;22600;-74
2022/05/25 02:44:14;;;;;;;7.40;6.60;;;;;;;14.58;84.05;100063.42;84791;1327;23940;-74
2022/05/25 02:46:37;;;;;;;8.40;6.50;;;;;;;14.57;83.86;100070.64;84792;1322;22911;-73
2022/05/25 02:48:55;;;;;;;7.30;6.70;;;;;;;14.56;84.07;100075.80;84804;1327;22635;-75
2022/05/25 02:51:14;;;;;;;7.80;7.00;;;;;;;14.59;84.12;100080.39;84810;1325;22594;-74
2022/05/25 02:53:39;;;;;;;7.90;6.20;;;;;;;14.61;84.21;100085.35;84811;1328;22645;-75
2022/05/25 02:55:57;;;;;;;9.10;6.80;;;;;;;14.63;84.29;100085.77;84818;1326;22606;-74
2022/05/25 02:58:14;;;;;;;9.30;6.30;;;;;;;14.64;84.25;100084.66;84785;1327;24258;-75
2022/05/25 03:00:25;;;;;;;6.80;6.10;;;;;;;14.66;84.38;100086.66;84833;1327;22758;-74
2022/05/25 03:02:37;;;;;;;7.20;6.60;;;;;;;14.68;84.40;100089.88;84814;1329;24468;-75
2022/05/25 03:04:56;;;;;;;8.70;6.50;;;;;;;14.69;84.37;100085.98;84785;1321;23134;-74
2022/05/25 03:07:09;;;;;;;8.20;7.50;;;;;;;14.70;84.40;100080.97;84809;1325;22599;-73
2022/05/25 03:09:33;;;;;;;7.20;6.60;;;;;;;14.71;84.39;100085.96;84807;1321;22828;-74
2022/05/25 03:11:45;;;;;;;9.30;6.90;;;;;;;14.75;84.49;100084.19;84826;1325;22573;-74
2022/05/25 03:13:54;;;;;;;7.10;6.50;;;;;;;14.77;84.47;100083.56;84813;1323;22679;-74
2022/05/25 03:16:07;;;;;;;7.20;6.60;;;;;;;14.78;84.48;100090.65;84814;1325;24228;-75
2022/05/25 03:18:33;;;;;;;10.20;6.20;;;;;;;14.81;84.50;100090.83;84819;1322;22698;-73
2022/05/25 03:20:50;;;;;;;8.00;6.90;;;;;;;14.85;84.55;100087.79;84775;1323;25453;-74
2022/05/25 03:23:04;;;;;;;7.40;6.70;;;;;;;14.89;84.55;100085.81;84811;1326;22583;-74
2022/05/25 03:25:14;;;;;;;13.40;7.70;;;;;;;14.93;84.60;100087.84;84798;1322;23150;-73
2022/05/25 03:27:22;;;;;;;7.40;6.50;;;;;;;14.95;84.40;100091.05;84811;1329;22584;-73
2022/05/25 03:29:36;;;;;;;8.70;7.70;;;;;;;14.94;84.37;100087.04;84778;1318;22637;-73
2022/05/25 03:31:43;;;;;;;;;;;;;;;14.95;84.43;100091.55;84822;1327;22578;-73
2022/05/25 03:33:53;;;;;;;7.80;7.10;;;;;;;14.94;84.60;100095.14;84806;1319;25584;-73
2022/05/25 03:36:04;;;;;;;8.80;7.40;;;;;;;14.96;84.60;100095.88;84832;1326;24154;-73
2022/05/25 03:38:17;;;;;;;7.50;6.80;;;;;;;14.99;84.70;100095.05;84794;1322;24225;-73
2022/05/25 03:40:27;;;;;;;7.90;7.30;;;;;;;15.01;84.74;100098.45;84815;1325;22955;-73
2022/05/25 03:42:35;;;;;;;9.10;6.80;;;;;;;15.03;84.79;100099.04;84785;1327;22593;-73
2022/05/25 03:44:43;;;;;;;7.90;7.20;;;;;;;15.06;84.79;100099.89;84786;1327;25586;-74
2022/05/25 03:46:56;;;;;;;7.60;6.80;;;;;;;15.08;84.90;100100.28;84793;1325;22649;-73
2022/05/25 03:49:05;;;;;;;7.90;7.20;;;;;;;15.09;84.87;100098.27;84793;1318;22584;-73
2022/05/25 03:51:16;;;;;;;8.70;7.80;;;;;;;15.12;84.80;100100.36;84816;1326;22744;-73
2022/05/25 03:53:24;;;;;;;7.70;7.10;;;;;;;15.15;84.80;100106.48;84796;1326;22672;-73
2022/05/25 03:55:35;;;;;;;8.00;7.20;;;;;;;15.19;84.93;100107.52;84815;1327;22707;-74
2022/05/25 03:57:48;;;;;;;8.00;7.20;;;;;;;15.21;84.80;100106.85;84788;1327;25602;-73
2022/05/25 04:00:01;;;;;;;9.70;7.50;;;;;;;15.24;84.90;100108.41;84815;1327;22721;-75
2022/05/25 04:02:23;;;;;;;9.60;7.70;;;;;;;15.25;84.83;100102.55;84817;1325;22683;-74
2022/05/25 04:04:31;;;;;;;8.00;7.30;;;;;;;15.28;84.78;100103.07;84787;1322;22771;-72
2022/05/25 04:06:41;;;;;;;8.10;7.30;;;;;;;15.31;84.84;100102.73;84781;1327;25547;-74
2022/05/25 04:09:04;;;;;;;8.50;7.70;;;;;;;15.34;84.94;100106.96;84811;1325;22600;-73
2022/05/25 04:11:37;;;;;;;7.70;6.90;;;;;;;15.37;84.89;100107.10;84495;1325;326568;-74
2022/05/25 04:13:55;;;;;;;8.00;7.00;;;;;;;15.41;84.79;100105.95;84801;1325;23928;-75
2022/05/25 04:16:09;;;;;;;7.90;7.30;;;;;;;15.46;84.71;100100.23;84795;1326;22580;-73
2022/05/25 04:18:32;;;;;;;9.60;8.70;;;;;;;15.50;84.70;100100.31;84802;1323;22799;-74
2022/05/25 04:20:48;;;;;;;8.90;8.00;;;;;;;15.54;84.74;100100.78;84752;1327;22594;-74
2022/05/25 04:23:00;;;;;;;9.00;8.10;;;;;;;15.57;84.78;100100.42;84829;1327;22599;-74
2022/05/25 04:25:28;;;;;;;8.10;7.30;;;;;;;15.61;84.72;100100.70;84794;1327;22580;-74
2022/05/25 04:27:44;;;;;;;9.20;7.30;;;;;;;15.67;84.81;100100.67;84806;1327;22808;-74
2022/05/25 04:30:04;;;;;;;8.40;7.60;;;;;;;15.72;84.88;100101.56;84800;1327;22740;-73
2022/05/25 04:32:15;;;;;;;7.90;7.20;;;;;;;15.81;84.86;100097.69;84812;1325;22631;-74
2022/05/25 04:34:32;;;;;;;11.40;8.10;;;;;;;15.90;84.75;100101.98;84812;1323;22940;-72
2022/05/25 04:36:44;;;;;;;8.90;7.90;;;;;;;15.99;84.81;100103.70;84785;1326;22776;-75
2022/05/25 04:38:53;;;;;;;9.70;8.80;;;;;;;16.07;84.61;100101.27;84805;1326;23055;-73
2022/05/25 04:41:05;;;;;;;9.00;8.20;;;;;;;16.13;84.53;100101.73;84805;1325;22675;-74
2022/05/25 04:43:29;;;;;;;9.10;8.00;;;;;;;16.19;84.39;100096.97;84802;1322;22671;-75
2022/05/25 04:45:47;;;;;;;13.30;9.50;;;;;;;16.25;84.35;100092.33;84797;1321;22817;-75
2022/05/25 04:47:59;;;;;;;9.80;8.90;;;;;;;16.32;84.33;100088.70;84806;1326;22606;-74
2022/05/25 04:50:11;;;;;;;9.30;8.50;;;;;;;16.39;84.27;100090.17;84749;1325;24156;-74
2022/05/25 04:52:20;;;;;;;9.30;8.30;;;;;;;16.47;84.13;100092.83;84821;1325;22603;-74
2022/05/25 04:54:30;;;;;;;11.20;9.00;;;;;;;16.58;84.31;100091.38;84796;1325;22621;-74
2022/05/25 04:59:41;;;;;;;10.50;9.60;;;;;;;16.79;83.79;100099.13;84657;1331;22576;-74
2022/05/25 05:01:58;;;;;;;10.40;9.20;;;;;;;16.89;83.49;100105.52;84748;1326;22600;-73
2022/05/25 05:04:22;;;;;;;11.30;9.90;;;;;;;16.97;83.31;100110.41;84794;1327;22954;-74
2022/05/25 05:06:34;;;;;;;10.30;9.00;;;;;;;17.03;83.22;100110.13;84817;1325;22568;-76
2022/05/25 05:08:41;;;;;;;;;;;;;;;17.08;83.06;100107.87;84813;1325;22578;-73
2022/05/25 05:10:51;;;;;;;13.50;10.50;;;;;;;17.17;83.27;100110.62;84799;1325;22609;-76
2022/05/25 05:13:07;;;;;;;12.10;10.40;;;;;;;17.30;83.01;100107.27;84783;1326;22605;-74
2022/05/25 05:15:22;;;;;;;11.30;10.20;;;;;;;17.39;82.65;100104.17;84800;1326;22602;-74
2022/05/25 05:17:33;;;;;;;12.10;10.40;;;;;;;17.47;82.37;100103.60;84780;1326;22603;-74
2022/05/25 05:19:51;;;;;;;14.20;11.60;;;;;;;17.50;82.15;100102.27;84781;1322;22607;-74
2022/05/25 05:22:00;;;;;;;12.40;11.30;;;;;;;17.54;81.73;100106.23;84810;1326;22739;-75
2022/05/25 05:24:10;;;;;;;13.70;12.00;;;;;;;17.53;81.39;100103.31;84766;1328;22596;-74
2022/05/25 05:26:16;;;;;;;;;;;;;;;17.52;81.03;100107.08;84824;1321;22662;-74
2022/05/25 05:28:31;;;;;;;18.00;13.00;;;;;;;17.50;80.85;100106.91;84812;1326;22690;-74
2022/05/25 05:30:50;;;;;;;20.10;13.90;;;;;;;17.49;80.87;100115.20;84816;1326;22588;-76
2022/05/25 05:33:08;;;;;;;17.10;13.90;;;;;;;17.47;80.50;100116.42;84815;1326;22582;-73
2022/05/25 05:35:22;;;;;;;18.50;13.40;;;;;;;17.44;80.62;100113.31;84802;1326;22589;-74
2022/05/25 05:37:32;;;;;;;22.60;13.50;;;;;;;17.45;80.73;100111.96;84785;1326;25279;-74
2022/05/25 05:39:45;;;;;;;19.10;14.30;;;;;;;17.48;80.92;100117.97;84730;1326;22605;-73
2022/05/25 05:41:56;;;;;;;25.90;16.60;;;;;;;17.49;80.60;100115.08;84781;1327;22612;-73
2022/05/25 05:44:13;;;;;;;23.90;17.00;;;;;;;17.50;80.72;100118.02;84777;1326;25297;-73
2022/05/25 05:46:25;;;;;;;24.10;16.70;;;;;;;17.53;80.80;100111.75;84798;1326;25282;-73
2022/05/25 05:48:42;;;;;;;28.20;17.30;;;;;;;17.56;80.84;100110.56;84802;1326;22581;-73
2022/05/25 05:51:08;;;;;;;24.00;15.80;;;;;;;17.55;80.73;100115.02;84771;1327;22588;-75
2022/05/25 05:53:27;;;;;;;25.80;17.50;;;;;;;17.52;80.57;100119.80;84803;1326;22793;-73
2022/05/25 05:55:47;;;;;;;28.00;15.70;;;;;;;17.50;80.67;100118.89;84819;1326;22593;-75
2022/05/25 05:58:13;;;;;;;26.50;16.60;;;;;;;17.52;80.78;100121.84;84768;1327;22618;-74
2022/05/25 06:00:23;;;;;;;26.50;17.50;;;;;;;17.57;80.92;100122.65;84736;1327;23914;-73
2022/05/25 06:02:37;;;;;;;24.50;17.60;;;;;;;17.59;81.03;100126.39;84798;1327;23021;-73
2022/05/25 06:04:47;;;;;;;30.00;18.50;;;;;;;17.60;80.92;100129.45;84789;1318;25465;-75
2022/05/25 06:06:55;;;;;;;32.40;19.80;;;;;;;17.62;80.98;100132.81;84788;1327;22591;-74
2022/05/25 06:09:09;;;;;;;28.40;16.90;;;;;;;17.64;80.88;100136.61;84778;1326;22628;-75
2022/05/25 06:11:53;;;;;;;22.80;16.50;;;;;;;17.62;80.97;100137.22;84791;1326;25318;-74
2022/05/25 06:14:56;;;;;;;18.90;14.00;;;;;;;17.59;80.97;100132.74;84793;1327;24331;-74
2022/05/25 06:21:07;;;;;;;18.60;15.40;;;;;;;17.59;80.96;100137.27;84297;1335;25311;-75
2022/05/25 06:32:32;;;;;;;24.40;17.10;;;;;;;17.47;80.97;100121.71;84368;1335;22599;-75
2022/05/25 06:35:16;;;;;;;19.80;17.00;;;;;;;17.47;81.22;100120.50;84337;1336;25490;-74
2022/05/25 06:51:25;;;;;;;19.80;16.70;;;;;;;17.59;81.88;100109.61;83510;1344;22620;-72
2022/05/25 06:57:11;;;;;;;31.40;24.90;;;;;;;17.83;82.35;100111.95;83472;1344;22741;-73
2022/05/25 07:05:06;;;;;;;19.80;16.70;;;;;;;18.34;82.25;100113.66;82840;1352;22728;-74
2022/05/25 07:15:55;;;;;;;19.90;17.50;;;;;;;18.50;80.66;100124.09;83389;1345;24539;-73
2022/05/25 07:18:13;;;;;;;20.00;16.50;;;;;;;18.51;80.69;100123.52;83578;1342;24464;-74
2022/05/25 07:20:24;;;;;;;19.20;17.00;;;;;;;18.54;80.34;100121.16;84547;1328;24264;-74
2022/05/25 07:22:31;;;;;;;19.20;16.40;;;;;;;18.56;80.18;100124.38;84845;1325;22667;-74
2022/05/25 07:24:39;;;;;;;18.50;16.50;;;;;;;18.64;80.77;100126.09;84822;1318;22659;-74
2022/05/25 07:26:46;;;;;;;19.20;17.10;;;;;;;18.76;80.59;100128.39;84839;1326;22599;-74
2022/05/25 07:28:56;;;;;;;19.70;17.10;;;;;;;18.84;79.58;100128.84;84828;1325;22587;-74
2022/05/25 07:31:15;;;;;;;22.80;19.00;;;;;;;18.85;78.98;100130.52;84839;1327;22795;-74
2022/05/25 07:33:30;;;;;;;22.80;20.00;;;;;;;18.88;78.72;100133.11;84857;1324;27040;-75
2022/05/25 07:35:38;;;;;;;25.00;20.30;;;;;;;18.87;78.50;100135.67;84838;1323;22608;-74
2022/05/25 07:37:51;;;;;;;23.10;19.70;;;;;;;18.86;78.36;100136.16;84828;1325;25432;-75
2022/05/25 07:40:14;;;;;;;25.30;20.10;;;;;;;18.80;78.21;100134.30;84862;1326;22781;-74
2022/05/25 07:42:21;;;;;;;26.20;20.60;;;;;;;18.79;78.87;100138.78;84843;1326;25445;-75
2022/05/25 07:44:35;;;;;;;26.00;20.00;;;;;;;18.84;79.08;100137.20;84853;1326;25371;-75
2022/05/25 07:46:44;;;;;;;28.00;21.70;;;;;;;18.86;79.01;100137.16;84831;1323;25302;-75
2022/05/25 07:48:51;;;;;;;22.90;20.50;;;;;;;18.92;79.37;100133.56;84857;1324;22825;-75
2022/05/25 07:51:01;;;;;;;24.10;21.00;;;;;;;18.97;79.33;100134.54;84837;1327;22695;-74
2022/05/25 07:55:33;;;;;;;33.20;24.90;;;;;;;19.05;78.91;100143.35;84824;1324;24129;-75
2022/05/25 07:57:41;;;;;;;34.30;24.10;;;;;;;19.10;79.08;100145.94;84836;1323;22619;-75
2022/05/25 07:59:51;;;;;;;39.90;26.10;;;;;;;19.07;78.15;100147.95;84835;1325;22594;-75
2022/05/25 08:07:01;;;;;;;35.80;25.70;;;;;;;18.99;78.10;100149.42;84835;1324;22586;-74
2022/05/25 08:09:09;;;;;;;34.00;26.00;;;;;;;18.95;77.87;100150.97;84847;1323;25307;-73
2022/05/25 08:11:18;;;;;;;36.70;25.40;;;;;;;18.92;78.24;100149.61;84869;1324;22686;-73
2022/05/25 08:13:25;;;;;;;37.80;28.10;;;;;;;18.90;78.44;100153.29;84826;1320;22605;-74
2022/05/25 08:15:33;;;;;;;34.30;26.90;;;;;;;18.89;78.55;100156.91;84840;1324;22764;-74
2022/05/25 08:17:43;;;;;;;35.70;27.50;;;;;;;18.89;78.91;100162.44;84861;1323;22605;-74
2022/05/25 08:19:50;;;;;;;33.90;27.10;;;;;;;18.87;78.54;100164.86;84845;1324;22592;-74
2022/05/25 08:21:58;;;;;;;39.40;30.90;;;;;;;18.84;78.67;100162.77;84860;1328;24029;-74
2022/05/25 08:24:08;;;;;;;40.00;28.40;;;;;;;18.79;78.48;100165.98;84820;1328;22664;-74
2022/05/25 08:26:16;;;;;;;41.80;28.80;;;;;;;18.75;78.55;100162.94;84852;1326;22585;-74
2022/05/25 08:28:26;;;;;;;39.20;31.30;;;;;;;18.73;78.75;100159.77;84856;1323;22604;-74
2022/05/25 08:30:35;;;;;;;38.50;30.80;;;;;;;18.69;78.81;100157.58;84847;1328;22617;-74
2022/05/25 08:32:42;;;;;;;37.50;29.00;;;;;;;18.64;78.67;100159.16;84835;1324;26603;-74
2022/05/25 08:34:49;;;;;;;41.80;30.50;;;;;;;18.62;78.96;100160.89;84856;1319;24269;-74
2022/05/25 08:36:57;;;;;;;40.70;30.80;;;;;;;18.62;79.22;100163.02;84824;1325;22797;-74
2022/05/25 08:39:05;;;;;;;43.20;30.10;;;;;;;18.66;79.26;100163.09;84831;1328;22657;-74
2022/05/25 08:41:12;;;;;;;41.70;28.40;;;;;;;18.70;79.28;100167.55;84859;1325;23219;-74
2022/05/25 08:43:23;;;;;;;41.10;29.40;;;;;;;18.72;79.23;100163.48;84865;1324;22641;-74
2022/05/25 08:45:37;;;;;;;46.50;31.30;;;;;;;18.73;79.21;100167.83;84850;1323;24394;-74
2022/05/25 08:47:49;;;;;;;48.40;33.80;;;;;;;18.71;79.23;100168.35;84860;1328;25476;-73
2022/05/25 08:50:09;;;;;;;;;;;;;;;;;;;;;
2022/05/25 08:52:45;;;;;;;49.20;33.80;;;;;;;18.61;79.22;100175.48;84824;1324;24077;-73
2022/05/25 08:55:12;;;;;;;49.70;34.20;;;;;;;18.55;79.11;100180.45;84835;1324;23942;-74
2022/05/25 08:57:33;;;;;;;46.70;32.40;;;;;;;18.54;79.27;100185.70;84826;1329;26708;-73
2022/05/25 08:59:46;;;;;;;51.90;33.20;;;;;;;18.55;79.30;100186.66;84802;1327;22790;-73
2022/05/25 09:01:57;;;;;;;46.80;31.70;;;;;;;18.55;79.17;100191.62;84830;1325;22610;-74
2022/05/25 09:04:09;;;;;;;45.70;33.20;;;;;;;18.53;79.07;100197.42;84804;1325;22757;-73
2022/05/25 09:06:29;;;;;;;52.50;34.60;;;;;;;18.52;79.21;100201.02;84794;1325;22600;-74
2022/05/25 09:08:41;;;;;;;47.70;34.50;;;;;;;18.51;79.25;100205.16;84797;1325;24196;-74
2022/05/25 09:10:52;;;;;;;51.50;35.30;;;;;;;18.47;79.10;100209.00;84842;1327;22612;-73
2022/05/25 09:13:03;;;;;;;44.70;33.60;;;;;;;18.44;79.25;100212.07;84826;1326;22632;-72
2022/05/25 09:15:13;;;;;;;47.30;34.60;;;;;;;18.42;79.41;100212.16;84827;1322;23108;-72
2022/05/25 09:17:25;;;;;;;43.30;34.50;;;;;;;18.38;79.33;100213.85;84800;1326;22659;-72
2022/05/25 09:19:38;;;;;;;45.30;33.80;;;;;;;18.36;79.45;100217.76;84809;1329;22645;-72
2022/05/25 09:21:51;;;;;;;48.80;34.30;;;;;;;18.31;79.36;100221.28;84712;1323;22774;-71
2022/05/25 09:23:59;;;;;;;53.70;36.80;;;;;;;18.25;79.52;100222.81;84835;1326;22746;-72
2022/05/25 09:26:07;;;;;;;48.90;36.10;;;;;;;18.20;79.52;100223.31;84789;1326;22629;-71
2022/05/25 09:28:20;;;;;;;50.00;35.10;;;;;;;18.17;79.64;100224.40;84785;1328;22628;-74
2022/05/25 09:30:30;;;;;;;46.90;34.60;;;;;;;18.14;79.50;100226.91;84814;1329;22586;-74
2022/05/25 09:32:49;;;;;;;46.50;34.10;;;;;;;18.09;79.44;100225.89;84836;1325;22573;-74
2022/05/25 09:35:00;;;;;;;45.50;33.00;;;;;;;18.06;79.63;100224.67;84828;1328;22620;-74
2022/05/25 09:37:13;;;;;;;42.50;31.40;;;;;;;18.06;79.79;100226.08;84813;1329;22597;-74
2022/05/25 09:39:26;;;;;;;38.30;29.50;;;;;;;18.06;79.82;100222.52;84776;1329;26589;-74
2022/05/25 09:41:34;;;;;;;39.70;30.90;;;;;;;18.09;79.99;100224.52;84799;1324;24431;-74
2022/05/25 09:43:43;;;;;;;38.50;31.10;;;;;;;18.12;80.23;100225.45;84809;1318;24182;-72
2022/05/25 09:45:52;;;;;;;42.40;33.00;;;;;;;18.15;80.22;100227.73;84791;1322;25463;-71
2022/05/25 09:47:59;;;;;;;39.90;33.00;;;;;;;18.18;80.32;100225.40;84811;1329;22620;-71
2022/05/25 09:50:09;;;;;;;36.00;29.20;;;;;;;18.23;80.21;100224.85;84804;1327;22726;-74
2022/05/25 09:52:21;;;;;;;36.70;29.40;;;;;;;18.26;80.21;100226.02;84860;1327;23866;-74
2022/05/25 09:54:31;;;;;;;33.50;28.50;;;;;;;18.30;80.19;100226.96;84828;1325;22818;-73
2022/05/25 09:56:40;;;;;;;35.80;29.30;;;;;;;18.36;80.39;100223.23;84827;1327;22578;-73
2022/05/25 09:58:50;;;;;;;33.00;27.10;;;;;;;18.39;80.44;100223.52;84811;1327;25333;-73
2022/05/25 10:01:02;;;;;;;31.10;26.90;;;;;;;18.44;80.46;100220.14;84804;1327;24138;-74
2022/05/25 10:03:12;;;;;;;35.00;28.90;;;;;;;18.49;80.31;100215.89;84809;1328;22856;-74
2022/05/25 10:05:27;;;;;;;30.40;27.00;;;;;;;18.54;80.35;100211.66;84792;1325;22588;-73
2022/05/25 10:07:37;;;;;;;27.80;24.80;;;;;;;18.59;80.20;100217.66;84820;1325;22746;-73
2022/05/25 10:10:07;;;;;;;26.60;23.20;;;;;;;18.62;79.73;100224.51;84827;1328;22599;-73
2022/05/25 10:12:26;;;;;;;29.10;23.90;;;;;;;18.67;79.91;100226.27;84820;1322;22589;-74
2022/05/25 10:14:37;;;;;;;27.70;22.30;;;;;;;18.75;79.80;100223.77;84808;1325;26742;-74
2022/05/25 10:16:47;;;;;;;22.90;20.40;;;;;;;18.83;79.70;100218.33;84815;1329;22985;-74
2022/05/25 10:18:53;;;;;;;;;;;;;;;18.99;80.35;100214.29;84798;1329;22642;-74
2022/05/25 10:21:01;;;;;;;20.10;16.70;;;;;;;19.18;80.23;100209.38;84753;1330;22586;-73
2022/05/25 10:23:11;;;;;;;17.20;15.50;;;;;;;19.39;79.85;100212.90;84748;1328;22602;-74
2022/05/25 10:25:30;;;;;;;19.20;16.00;;;;;;;19.53;78.96;100215.33;84809;1328;22766;-74
2022/05/25 10:27:41;;;;;;;19.60;16.40;;;;;;;19.59;78.22;100217.67;84817;1329;22601;-74
2022/05/25 10:37:20;;;;;;;20.60;15.40;;;;;;;19.58;76.33;100212.27;84813;1327;22599;-73
2022/05/25 10:40:01;;;;;;;14.80;13.30;;;;;;;19.58;76.18;100211.74;84819;1326;22703;-73
2022/05/25 10:42:17;;;;;;;13.50;12.30;;;;;;;19.56;75.38;100207.11;84817;1326;26593;-73
2022/05/25 10:44:33;;;;;;;12.70;11.40;;;;;;;19.46;74.60;100209.80;84792;1329;25803;-73
2022/05/25 10:46:41;;;;;;;12.10;11.10;;;;;;;19.43;74.86;100207.63;84840;1322;22888;-74
2022/05/25 10:48:52;;;;;;;11.50;10.50;;;;;;;19.47;75.22;100206.93;84831;1327;22601;-73
2022/05/25 10:55:18;;;;;;;10.10;9.20;;;;;;;19.58;74.98;100213.97;84360;1331;22615;-74
2022/05/25 10:57:45;;;;;;;12.30;10.70;;;;;;;19.56;73.90;100212.59;84578;1326;24087;-74
2022/05/25 11:00:17;;;;;;;9.60;8.80;;;;;;;19.51;73.75;100211.38;84832;1326;22591;-73
2022/05/25 11:02:37;;;;;;;9.20;8.40;;;;;;;19.48;73.67;100207.89;84778;1324;22665;-73
2022/05/25 11:05:14;;;;;;;9.00;8.20;;;;;;;19.44;72.73;100215.14;84833;1322;22600;-74
2022/05/25 11:07:28;;;;;;;7.90;7.20;;;;;;;19.32;72.77;100214.63;84826;1323;22781;-74
2022/05/25 11:09:49;;;;;;;7.90;7.20;;;;;;;19.26;72.24;100215.66;84823;1322;22593;-73
2022/05/25 11:12:02;;;;;;;7.90;6.90;;;;;;;19.17;71.76;100222.15;84815;1325;22593;-72
2022/05/25 11:14:29;;;;;;;8.00;7.30;;;;;;;19.04;71.21;100225.45;84814;1325;22746;-75
2022/05/25 11:16:44;;;;;;;7.40;6.60;;;;;;;18.92;71.29;100227.92;84806;1327;22787;-74
2022/05/25 11:19:16;;;;;;;7.80;6.30;;;;;;;18.86;71.59;100232.44;84833;1327;22587;-74
2022/05/25 11:21:32;;;;;;;6.60;6.10;;;;;;;18.81;71.42;100236.34;84822;1325;22585;-73
2022/05/25 11:23:51;;;;;;;6.40;5.80;;;;;;;18.77;71.34;100238.57;84808;1329;22589;-74
2022/05/25 11:26:05;;;;;;;;;;;;;;;18.73;71.41;100246.48;84785;1329;22653;-74
2022/05/25 11:28:22;;;;;;;7.70;5.90;;;;;;;18.65;71.37;100247.57;84854;1322;22800;-74
2022/05/25 11:30:34;;;;;;;6.40;5.80;;;;;;;18.56;71.18;100249.83;84817;1325;22626;-74
2022/05/25 11:32:57;;;;;;;6.40;5.80;;;;;;;18.44;71.07;100246.44;84816;1329;22641;-74
2022/05/25 11:35:28;;;;;;;7.00;5.90;;;;;;;18.38;71.16;100248.99;84801;1326;22582;-73
2022/05/25 11:38:18;;;;;;;6.70;6.10;;;;;;;18.29;70.91;100246.83;84798;1323;24209;-74
2022/05/25 11:44:10;;;;;;;5.80;5.30;;;;;;;17.94;71.02;100260.15;84470;1331;22615;-73